sensor_id;sensor_type;location;lat;lon;timestamp;P1;durP1;ratioP1;P2;durP2;ratioP2
6638;SDS011;3355;52.882;8.430;2023-01-23T00:01:33;7.33;;;4.10;;
6638;SDS011;3355;52.882;8.430;2023-01-23T00:21:36;7.17;;;5.30;;
6638;SDS011;3355;52.882;8.430;2023-01-23T00:24:04;6.07;;;4.20;;
6638;SDS011;3355;52.882;8.430;2023-01-23T00:26:31;6.70;;;4.30;;
6638;SDS011;3355;52.882;8.430;2023-01-23T00:28:58;7.43;;;4.53;;
6638;SDS011;3355;52.882;8.430;2023-01-23T00:31:28;9.47;;;4.67;;
6638;SDS011;3355;52.882;8.430;2023-01-23T00:33:58;7.13;;;3.93;;
6638;SDS011;3355;52.882;8.430;2023-01-23T00:36:27;8.37;;;4.90;;
6638;SDS011;3355;52.882;8.430;2023-01-23T00:38:57;7.10;;;4.27;;
6638;SDS011;3355;52.882;8.430;2023-01-23T00:58:16;10.33;;;4.57;;
6638;SDS011;3355;52.882;8.430;2023-01-23T01:00:44;7.40;;;4.90;;
6638;SDS011;3355;52.882;8.430;2023-01-23T01:03:12;8.30;;;5.10;;
6638;SDS011;3355;52.882;8.430;2023-01-23T01:05:39;6.77;;;4.30;;
6638;SDS011;3355;52.882;8.430;2023-01-23T01:08:07;6.73;;;4.50;;
6638;SDS011;3355;52.882;8.430;2023-01-23T01:10:35;8.07;;;5.13;;
6638;SDS011;3355;52.882;8.430;2023-01-23T01:13:02;6.50;;;4.70;;
6638;SDS011;3355;52.882;8.430;2023-01-23T01:15:32;8.40;;;5.40;;
6638;SDS011;3355;52.882;8.430;2023-01-23T01:18:00;7.53;;;4.50;;
6638;SDS011;3355;52.882;8.430;2023-01-23T01:20:30;9.33;;;5.50;;
6638;SDS011;3355;52.882;8.430;2023-01-23T01:22:58;7.50;;;5.20;;
6638;SDS011;3355;52.882;8.430;2023-01-23T01:25:26;5.20;;;4.07;;
6638;SDS011;3355;52.882;8.430;2023-01-23T01:27:54;7.23;;;4.30;;
6638;SDS011;3355;52.882;8.430;2023-01-23T02:07:51;7.73;;;5.03;;
6638;SDS011;3355;52.882;8.430;2023-01-23T02:10:22;6.60;;;4.40;;
6638;SDS011;3355;52.882;8.430;2023-01-23T02:12:51;7.77;;;5.03;;
6638;SDS011;3355;52.882;8.430;2023-01-23T02:15:20;5.50;;;4.13;;
6638;SDS011;3355;52.882;8.430;2023-01-23T02:17:49;6.50;;;4.10;;
6638;SDS011;3355;52.882;8.430;2023-01-23T02:20:18;7.30;;;4.40;;
6638;SDS011;3355;52.882;8.430;2023-01-23T02:22:50;8.10;;;4.30;;
6638;SDS011;3355;52.882;8.430;2023-01-23T02:25:27;7.13;;;4.10;;
6638;SDS011;3355;52.882;8.430;2023-01-23T02:28:00;4.27;;;3.50;;
6638;SDS011;3355;52.882;8.430;2023-01-23T02:30:28;9.10;;;5.30;;
6638;SDS011;3355;52.882;8.430;2023-01-23T02:33:06;10.60;;;4.90;;
6638;SDS011;3355;52.882;8.430;2023-01-23T02:35:35;5.90;;;4.50;;
6638;SDS011;3355;52.882;8.430;2023-01-23T02:38:04;6.67;;;4.33;;
6638;SDS011;3355;52.882;8.430;2023-01-23T02:40:31;6.00;;;4.50;;
6638;SDS011;3355;52.882;8.430;2023-01-23T02:43:02;8.20;;;5.43;;
6638;SDS011;3355;52.882;8.430;2023-01-23T02:45:31;7.10;;;4.37;;
6638;SDS011;3355;52.882;8.430;2023-01-23T02:47:58;6.20;;;4.80;;
6638;SDS011;3355;52.882;8.430;2023-01-23T02:50:26;5.77;;;3.97;;
6638;SDS011;3355;52.882;8.430;2023-01-23T02:52:53;7.93;;;4.53;;
6638;SDS011;3355;52.882;8.430;2023-01-23T02:55:22;5.13;;;4.17;;
6638;SDS011;3355;52.882;8.430;2023-01-23T02:57:50;6.37;;;4.30;;
6638;SDS011;3355;52.882;8.430;2023-01-23T03:00:39;11.00;;;4.97;;
6638;SDS011;3355;52.882;8.430;2023-01-23T03:03:07;5.10;;;4.33;;
6638;SDS011;3355;52.882;8.430;2023-01-23T03:05:35;8.23;;;4.93;;
6638;SDS011;3355;52.882;8.430;2023-01-23T03:08:03;5.70;;;4.57;;
6638;SDS011;3355;52.882;8.430;2023-01-23T03:10:30;6.63;;;4.70;;
6638;SDS011;3355;52.882;8.430;2023-01-23T03:12:58;6.20;;;4.73;;
6638;SDS011;3355;52.882;8.430;2023-01-23T03:15:31;6.97;;;5.27;;
6638;SDS011;3355;52.882;8.430;2023-01-23T03:18:01;6.10;;;4.53;;
6638;SDS011;3355;52.882;8.430;2023-01-23T03:20:29;6.37;;;4.63;;
6638;SDS011;3355;52.882;8.430;2023-01-23T03:22:59;6.73;;;4.77;;
6638;SDS011;3355;52.882;8.430;2023-01-23T03:25:27;8.77;;;4.37;;
6638;SDS011;3355;52.882;8.430;2023-01-23T03:27:55;5.60;;;4.10;;
6638;SDS011;3355;52.882;8.430;2023-01-23T03:30:23;9.10;;;4.53;;
6638;SDS011;3355;52.882;8.430;2023-01-23T03:35:32;6.30;;;4.30;;
6638;SDS011;3355;52.882;8.430;2023-01-23T03:38:01;8.60;;;4.30;;
6638;SDS011;3355;52.882;8.430;2023-01-23T03:40:28;7.30;;;5.07;;
6638;SDS011;3355;52.882;8.430;2023-01-23T03:43:13;6.20;;;4.20;;
6638;SDS011;3355;52.882;8.430;2023-01-23T03:45:41;7.53;;;4.87;;
6638;SDS011;3355;52.882;8.430;2023-01-23T03:48:09;7.50;;;4.57;;
6638;SDS011;3355;52.882;8.430;2023-01-23T03:50:38;5.37;;;4.47;;
6638;SDS011;3355;52.882;8.430;2023-01-23T03:53:05;7.67;;;4.80;;
6638;SDS011;3355;52.882;8.430;2023-01-23T03:55:33;6.37;;;4.77;;
6638;SDS011;3355;52.882;8.430;2023-01-23T03:58:01;7.73;;;5.10;;
6638;SDS011;3355;52.882;8.430;2023-01-23T04:00:29;7.20;;;4.90;;
6638;SDS011;3355;52.882;8.430;2023-01-23T04:02:57;10.53;;;4.90;;
6638;SDS011;3355;52.882;8.430;2023-01-23T04:05:25;6.73;;;3.90;;
6638;SDS011;3355;52.882;8.430;2023-01-23T04:07:54;6.17;;;4.33;;
6638;SDS011;3355;52.882;8.430;2023-01-23T04:10:22;6.67;;;4.30;;
6638;SDS011;3355;52.882;8.430;2023-01-23T04:12:49;6.20;;;4.50;;
6638;SDS011;3355;52.882;8.430;2023-01-23T04:15:17;5.83;;;4.03;;
6638;SDS011;3355;52.882;8.430;2023-01-23T04:17:45;6.87;;;4.67;;
6638;SDS011;3355;52.882;8.430;2023-01-23T04:20:13;6.20;;;3.93;;
6638;SDS011;3355;52.882;8.430;2023-01-23T04:22:40;7.07;;;4.70;;
6638;SDS011;3355;52.882;8.430;2023-01-23T04:25:10;5.10;;;4.40;;
6638;SDS011;3355;52.882;8.430;2023-01-23T04:27:37;7.57;;;4.70;;
6638;SDS011;3355;52.882;8.430;2023-01-23T04:30:06;5.90;;;4.50;;
6638;SDS011;3355;52.882;8.430;2023-01-23T04:42:54;5.07;;;3.90;;
6638;SDS011;3355;52.882;8.430;2023-01-23T04:45:23;7.60;;;4.00;;
6638;SDS011;3355;52.882;8.430;2023-01-23T04:47:51;6.50;;;3.80;;
6638;SDS011;3355;52.882;8.430;2023-01-23T04:50:19;6.43;;;4.40;;
6638;SDS011;3355;52.882;8.430;2023-01-23T04:55:29;6.40;;;4.83;;
6638;SDS011;3355;52.882;8.430;2023-01-23T04:57:59;6.23;;;4.50;;
6638;SDS011;3355;52.882;8.430;2023-01-23T05:00:28;7.07;;;4.40;;
6638;SDS011;3355;52.882;8.430;2023-01-23T05:02:57;5.27;;;4.00;;
6638;SDS011;3355;52.882;8.430;2023-01-23T05:05:25;7.27;;;4.10;;
6638;SDS011;3355;52.882;8.430;2023-01-23T05:07:53;9.20;;;5.63;;
6638;SDS011;3355;52.882;8.430;2023-01-23T05:10:22;6.27;;;4.40;;
6638;SDS011;3355;52.882;8.430;2023-01-23T05:15:26;8.17;;;4.27;;
6638;SDS011;3355;52.882;8.430;2023-01-23T05:17:54;5.80;;;4.20;;
6638;SDS011;3355;52.882;8.430;2023-01-23T05:20:22;5.57;;;3.97;;
6638;SDS011;3355;52.882;8.430;2023-01-23T05:22:49;7.70;;;5.70;;
6638;SDS011;3355;52.882;8.430;2023-01-23T05:25:21;11.47;;;4.57;;
6638;SDS011;3355;52.882;8.430;2023-01-23T05:27:49;6.50;;;4.80;;
6638;SDS011;3355;52.882;8.430;2023-01-23T05:30:17;8.17;;;4.80;;
6638;SDS011;3355;52.882;8.430;2023-01-23T05:32:48;8.27;;;4.73;;
6638;SDS011;3355;52.882;8.430;2023-01-23T05:35:16;6.60;;;4.47;;
6638;SDS011;3355;52.882;8.430;2023-01-23T05:37:47;7.93;;;5.43;;
6638;SDS011;3355;52.882;8.430;2023-01-23T05:40:16;6.53;;;4.70;;
6638;SDS011;3355;52.882;8.430;2023-01-23T05:42:44;9.20;;;5.07;;
6638;SDS011;3355;52.882;8.430;2023-01-23T05:45:13;8.43;;;5.37;;
6638;SDS011;3355;52.882;8.430;2023-01-23T05:47:41;8.63;;;5.53;;
6638;SDS011;3355;52.882;8.430;2023-01-23T05:50:12;8.63;;;4.70;;
6638;SDS011;3355;52.882;8.430;2023-01-23T05:52:42;8.30;;;5.30;;
6638;SDS011;3355;52.882;8.430;2023-01-23T05:55:10;6.33;;;4.80;;
6638;SDS011;3355;52.882;8.430;2023-01-23T05:57:39;9.40;;;5.50;;
6638;SDS011;3355;52.882;8.430;2023-01-23T06:00:07;11.47;;;6.73;;
6638;SDS011;3355;52.882;8.430;2023-01-23T06:02:37;9.50;;;5.77;;
6638;SDS011;3355;52.882;8.430;2023-01-23T06:05:06;8.77;;;5.80;;
6638;SDS011;3355;52.882;8.430;2023-01-23T06:07:37;8.70;;;6.10;;
6638;SDS011;3355;52.882;8.430;2023-01-23T06:10:06;8.13;;;6.07;;
6638;SDS011;3355;52.882;8.430;2023-01-23T06:12:35;10.70;;;6.30;;
6638;SDS011;3355;52.882;8.430;2023-01-23T06:15:03;8.43;;;5.80;;
6638;SDS011;3355;52.882;8.430;2023-01-23T06:17:32;8.20;;;5.50;;
6638;SDS011;3355;52.882;8.430;2023-01-23T06:19:59;6.70;;;5.20;;
6638;SDS011;3355;52.882;8.430;2023-01-23T06:22:27;7.37;;;5.50;;
6638;SDS011;3355;52.882;8.430;2023-01-23T06:24:57;7.70;;;5.70;;
6638;SDS011;3355;52.882;8.430;2023-01-23T06:27:24;7.33;;;5.50;;
6638;SDS011;3355;52.882;8.430;2023-01-23T06:29:52;7.50;;;6.03;;
6638;SDS011;3355;52.882;8.430;2023-01-23T06:32:19;9.80;;;6.07;;
6638;SDS011;3355;52.882;8.430;2023-01-23T06:34:47;9.90;;;6.17;;
6638;SDS011;3355;52.882;8.430;2023-01-23T06:37:15;15.23;;;5.70;;
6638;SDS011;3355;52.882;8.430;2023-01-23T06:39:42;6.80;;;5.23;;
6638;SDS011;3355;52.882;8.430;2023-01-23T06:42:13;6.93;;;5.97;;
6638;SDS011;3355;52.882;8.430;2023-01-23T06:44:41;7.60;;;5.53;;
6638;SDS011;3355;52.882;8.430;2023-01-23T06:47:09;9.93;;;5.60;;
6638;SDS011;3355;52.882;8.430;2023-01-23T06:49:37;10.73;;;7.13;;
6638;SDS011;3355;52.882;8.430;2023-01-23T06:52:05;8.07;;;5.57;;
6638;SDS011;3355;52.882;8.430;2023-01-23T06:54:33;9.70;;;5.53;;
6638;SDS011;3355;52.882;8.430;2023-01-23T06:57:01;11.63;;;7.40;;
6638;SDS011;3355;52.882;8.430;2023-01-23T06:59:31;10.70;;;6.70;;
6638;SDS011;3355;52.882;8.430;2023-01-23T07:01:59;8.30;;;5.93;;
6638;SDS011;3355;52.882;8.430;2023-01-23T07:04:27;10.60;;;7.40;;
6638;SDS011;3355;52.882;8.430;2023-01-23T07:06:56;8.70;;;5.93;;
6638;SDS011;3355;52.882;8.430;2023-01-23T07:09:23;10.73;;;6.80;;
6638;SDS011;3355;52.882;8.430;2023-01-23T07:11:51;9.53;;;6.73;;
6638;SDS011;3355;52.882;8.430;2023-01-23T07:14:20;10.50;;;6.57;;
6638;SDS011;3355;52.882;8.430;2023-01-23T07:16:53;8.30;;;6.53;;
6638;SDS011;3355;52.882;8.430;2023-01-23T07:19:21;8.73;;;6.20;;
6638;SDS011;3355;52.882;8.430;2023-01-23T07:21:50;10.03;;;6.50;;
6638;SDS011;3355;52.882;8.430;2023-01-23T07:24:18;9.03;;;6.43;;
6638;SDS011;3355;52.882;8.430;2023-01-23T07:26:46;11.07;;;6.70;;
6638;SDS011;3355;52.882;8.430;2023-01-23T07:29:14;11.63;;;6.90;;
6638;SDS011;3355;52.882;8.430;2023-01-23T07:31:41;11.30;;;7.80;;
6638;SDS011;3355;52.882;8.430;2023-01-23T07:34:10;11.73;;;7.20;;
6638;SDS011;3355;52.882;8.430;2023-01-23T07:36:39;12.50;;;6.67;;
6638;SDS011;3355;52.882;8.430;2023-01-23T07:39:07;10.10;;;6.47;;
6638;SDS011;3355;52.882;8.430;2023-01-23T07:41:35;12.60;;;6.90;;
6638;SDS011;3355;52.882;8.430;2023-01-23T07:44:03;13.80;;;6.70;;
6638;SDS011;3355;52.882;8.430;2023-01-23T07:46:30;9.33;;;6.90;;
6638;SDS011;3355;52.882;8.430;2023-01-23T07:48:58;11.13;;;8.27;;
6638;SDS011;3355;52.882;8.430;2023-01-23T07:51:27;10.87;;;7.30;;
6638;SDS011;3355;52.882;8.430;2023-01-23T07:53:54;16.63;;;7.77;;
6638;SDS011;3355;52.882;8.430;2023-01-23T07:56:21;10.60;;;7.57;;
6638;SDS011;3355;52.882;8.430;2023-01-23T07:58:49;9.20;;;6.80;;
6638;SDS011;3355;52.882;8.430;2023-01-23T08:01:17;11.80;;;7.33;;
6638;SDS011;3355;52.882;8.430;2023-01-23T08:03:45;9.93;;;8.00;;
6638;SDS011;3355;52.882;8.430;2023-01-23T08:06:13;13.83;;;8.17;;
6638;SDS011;3355;52.882;8.430;2023-01-23T08:08:59;11.77;;;7.80;;
6638;SDS011;3355;52.882;8.430;2023-01-23T08:11:31;9.47;;;7.00;;
6638;SDS011;3355;52.882;8.430;2023-01-23T08:17:23;9.90;;;7.00;;
6638;SDS011;3355;52.882;8.430;2023-01-23T08:23:38;10.57;;;7.17;;
6638;SDS011;3355;52.882;8.430;2023-01-23T08:33:05;9.20;;;6.83;;
6638;SDS011;3355;52.882;8.430;2023-01-23T08:36:08;11.07;;;7.53;;
6638;SDS011;3355;52.882;8.430;2023-01-23T08:38:38;10.83;;;6.73;;
6638;SDS011;3355;52.882;8.430;2023-01-23T08:41:18;13.13;;;8.97;;
6638;SDS011;3355;52.882;8.430;2023-01-23T08:43:46;11.00;;;7.87;;
6638;SDS011;3355;52.882;8.430;2023-01-23T08:46:32;12.50;;;7.70;;
6638;SDS011;3355;52.882;8.430;2023-01-23T08:49:00;13.17;;;7.57;;
6638;SDS011;3355;52.882;8.430;2023-01-23T08:51:29;13.00;;;8.47;;
6638;SDS011;3355;52.882;8.430;2023-01-23T09:07:06;9.27;;;6.30;;
6638;SDS011;3355;52.882;8.430;2023-01-23T11:36:57;12.23;;;7.50;;
6638;SDS011;3355;52.882;8.430;2023-01-23T11:39:47;11.60;;;8.27;;
6638;SDS011;3355;52.882;8.430;2023-01-23T11:42:22;8.90;;;6.93;;
6638;SDS011;3355;52.882;8.430;2023-01-23T11:45:12;11.57;;;7.47;;
6638;SDS011;3355;52.882;8.430;2023-01-23T11:51:51;12.70;;;7.70;;
6638;SDS011;3355;52.882;8.430;2023-01-23T11:55:29;11.90;;;7.20;;
6638;SDS011;3355;52.882;8.430;2023-01-23T11:58:23;12.53;;;7.93;;
6638;SDS011;3355;52.882;8.430;2023-01-23T12:01:18;15.13;;;8.40;;
6638;SDS011;3355;52.882;8.430;2023-01-23T12:04:31;9.10;;;7.23;;
6638;SDS011;3355;52.882;8.430;2023-01-23T12:07:25;9.93;;;6.80;;
6638;SDS011;3355;52.882;8.430;2023-01-23T12:10:09;11.27;;;7.03;;
6638;SDS011;3355;52.882;8.430;2023-01-23T12:13:33;9.40;;;7.07;;
6638;SDS011;3355;52.882;8.430;2023-01-23T12:16:24;10.10;;;7.60;;
6638;SDS011;3355;52.882;8.430;2023-01-23T12:57:20;12.10;;;8.20;;
6638;SDS011;3355;52.882;8.430;2023-01-23T13:00:02;11.77;;;7.90;;
6638;SDS011;3355;52.882;8.430;2023-01-23T13:02:36;9.77;;;7.00;;
6638;SDS011;3355;52.882;8.430;2023-01-23T13:05:08;16.03;;;9.47;;
6638;SDS011;3355;52.882;8.430;2023-01-23T13:07:43;13.67;;;7.53;;
6638;SDS011;3355;52.882;8.430;2023-01-23T13:10:18;12.20;;;8.80;;
6638;SDS011;3355;52.882;8.430;2023-01-23T13:12:53;12.70;;;8.30;;
6638;SDS011;3355;52.882;8.430;2023-01-23T13:15:29;10.77;;;7.87;;
6638;SDS011;3355;52.882;8.430;2023-01-23T13:17:58;12.87;;;7.83;;
6638;SDS011;3355;52.882;8.430;2023-01-23T13:20:28;11.33;;;8.00;;
6638;SDS011;3355;52.882;8.430;2023-01-23T13:23:20;12.07;;;7.70;;
6638;SDS011;3355;52.882;8.430;2023-01-23T13:29:06;13.87;;;8.77;;
6638;SDS011;3355;52.882;8.430;2023-01-23T13:32:19;12.37;;;8.50;;
6638;SDS011;3355;52.882;8.430;2023-01-23T13:34:47;10.40;;;7.80;;
6638;SDS011;3355;52.882;8.430;2023-01-23T13:40:18;11.83;;;7.97;;
6638;SDS011;3355;52.882;8.430;2023-01-23T13:42:48;12.37;;;8.40;;
6638;SDS011;3355;52.882;8.430;2023-01-23T13:45:23;11.33;;;8.60;;
6638;SDS011;3355;52.882;8.430;2023-01-23T13:51:04;13.40;;;8.57;;
6638;SDS011;3355;52.882;8.430;2023-01-23T13:53:41;12.20;;;7.50;;
6638;SDS011;3355;52.882;8.430;2023-01-23T13:56:27;9.90;;;7.47;;
6638;SDS011;3355;52.882;8.430;2023-01-23T13:59:15;10.50;;;7.43;;
6638;SDS011;3355;52.882;8.430;2023-01-23T14:01:53;11.47;;;7.80;;
6638;SDS011;3355;52.882;8.430;2023-01-23T14:04:40;11.87;;;8.37;;
6638;SDS011;3355;52.882;8.430;2023-01-23T14:07:27;13.63;;;8.23;;
6638;SDS011;3355;52.882;8.430;2023-01-23T14:10:31;14.37;;;9.00;;
6638;SDS011;3355;52.882;8.430;2023-01-23T14:16:49;15.00;;;9.47;;
6638;SDS011;3355;52.882;8.430;2023-01-23T14:19:21;11.30;;;8.57;;
6638;SDS011;3355;52.882;8.430;2023-01-23T14:21:50;12.10;;;8.30;;
6638;SDS011;3355;52.882;8.430;2023-01-23T14:24:20;13.17;;;9.40;;
6638;SDS011;3355;52.882;8.430;2023-01-23T14:26:50;11.47;;;8.60;;
6638;SDS011;3355;52.882;8.430;2023-01-23T14:29:19;14.63;;;8.53;;
6638;SDS011;3355;52.882;8.430;2023-01-23T14:31:46;13.10;;;9.63;;
6638;SDS011;3355;52.882;8.430;2023-01-23T14:34:17;15.23;;;9.30;;
6638;SDS011;3355;52.882;8.430;2023-01-23T14:36:45;11.97;;;8.70;;
6638;SDS011;3355;52.882;8.430;2023-01-23T14:39:14;11.33;;;7.97;;
6638;SDS011;3355;52.882;8.430;2023-01-23T14:41:42;13.87;;;9.07;;
6638;SDS011;3355;52.882;8.430;2023-01-23T14:44:10;17.63;;;9.53;;
6638;SDS011;3355;52.882;8.430;2023-01-23T14:46:41;14.30;;;9.57;;
6638;SDS011;3355;52.882;8.430;2023-01-23T14:49:08;12.37;;;9.30;;
6638;SDS011;3355;52.882;8.430;2023-01-23T14:51:36;13.77;;;8.80;;
6638;SDS011;3355;52.882;8.430;2023-01-23T14:54:14;12.30;;;7.90;;
6638;SDS011;3355;52.882;8.430;2023-01-23T14:56:43;10.67;;;8.30;;
6638;SDS011;3355;52.882;8.430;2023-01-23T14:59:14;12.80;;;9.60;;
6638;SDS011;3355;52.882;8.430;2023-01-23T15:01:52;14.70;;;9.07;;
6638;SDS011;3355;52.882;8.430;2023-01-23T15:04:22;16.13;;;8.80;;
6638;SDS011;3355;52.882;8.430;2023-01-23T15:06:52;14.17;;;9.57;;
6638;SDS011;3355;52.882;8.430;2023-01-23T15:09:21;16.20;;;10.27;;
6638;SDS011;3355;52.882;8.430;2023-01-23T15:11:50;14.90;;;8.77;;
6638;SDS011;3355;52.882;8.430;2023-01-23T15:14:20;13.50;;;9.50;;
6638;SDS011;3355;52.882;8.430;2023-01-23T15:16:49;14.90;;;11.00;;
6638;SDS011;3355;52.882;8.430;2023-01-23T15:19:17;16.50;;;10.83;;
6638;SDS011;3355;52.882;8.430;2023-01-23T15:21:46;13.23;;;9.00;;
6638;SDS011;3355;52.882;8.430;2023-01-23T15:24:18;13.03;;;8.90;;
6638;SDS011;3355;52.882;8.430;2023-01-23T15:26:55;14.10;;;9.23;;
6638;SDS011;3355;52.882;8.430;2023-01-23T15:29:24;13.03;;;8.97;;
6638;SDS011;3355;52.882;8.430;2023-01-23T15:31:54;13.43;;;8.80;;
6638;SDS011;3355;52.882;8.430;2023-01-23T15:34:22;13.20;;;9.23;;
6638;SDS011;3355;52.882;8.430;2023-01-23T15:36:51;13.30;;;9.00;;
6638;SDS011;3355;52.882;8.430;2023-01-23T15:39:25;15.53;;;10.43;;
6638;SDS011;3355;52.882;8.430;2023-01-23T15:41:54;13.43;;;9.37;;
6638;SDS011;3355;52.882;8.430;2023-01-23T15:44:23;12.90;;;9.13;;
6638;SDS011;3355;52.882;8.430;2023-01-23T15:46:51;13.00;;;8.80;;
6638;SDS011;3355;52.882;8.430;2023-01-23T15:49:18;11.43;;;8.50;;
6638;SDS011;3355;52.882;8.430;2023-01-23T15:51:48;13.87;;;10.00;;
6638;SDS011;3355;52.882;8.430;2023-01-23T15:54:32;12.60;;;9.00;;
6638;SDS011;3355;52.882;8.430;2023-01-23T15:57:02;14.47;;;8.90;;
6638;SDS011;3355;52.882;8.430;2023-01-23T15:59:29;13.73;;;10.00;;
6638;SDS011;3355;52.882;8.430;2023-01-23T16:02:20;13.30;;;9.83;;
6638;SDS011;3355;52.882;8.430;2023-01-23T16:08:10;15.23;;;9.10;;
6638;SDS011;3355;52.882;8.430;2023-01-23T16:10:43;12.63;;;9.40;;
6638;SDS011;3355;52.882;8.430;2023-01-23T16:13:11;14.73;;;9.93;;
6638;SDS011;3355;52.882;8.430;2023-01-23T16:15:39;20.93;;;14.20;;
6638;SDS011;3355;52.882;8.430;2023-01-23T16:18:05;15.07;;;10.20;;
6638;SDS011;3355;52.882;8.430;2023-01-23T16:20:32;13.40;;;9.50;;
6638;SDS011;3355;52.882;8.430;2023-01-23T16:23:02;15.20;;;9.90;;
6638;SDS011;3355;52.882;8.430;2023-01-23T16:25:31;17.00;;;11.33;;
6638;SDS011;3355;52.882;8.430;2023-01-23T16:28:00;15.40;;;10.80;;
6638;SDS011;3355;52.882;8.430;2023-01-23T16:30:26;13.17;;;10.10;;
6638;SDS011;3355;52.882;8.430;2023-01-23T16:32:53;17.67;;;10.70;;
6638;SDS011;3355;52.882;8.430;2023-01-23T16:35:20;13.90;;;10.90;;
6638;SDS011;3355;52.882;8.430;2023-01-23T16:37:50;14.47;;;10.13;;
6638;SDS011;3355;52.882;8.430;2023-01-23T16:40:18;11.27;;;9.80;;
6638;SDS011;3355;52.882;8.430;2023-01-23T16:42:47;18.07;;;12.03;;
6638;SDS011;3355;52.882;8.430;2023-01-23T16:45:20;15.97;;;11.27;;
6638;SDS011;3355;52.882;8.430;2023-01-23T16:47:47;15.10;;;10.30;;
6638;SDS011;3355;52.882;8.430;2023-01-23T16:50:15;17.47;;;11.63;;
6638;SDS011;3355;52.882;8.430;2023-01-23T16:52:43;14.77;;;11.60;;
6638;SDS011;3355;52.882;8.430;2023-01-23T16:55:16;18.17;;;13.23;;
6638;SDS011;3355;52.882;8.430;2023-01-23T16:57:45;18.77;;;12.70;;
6638;SDS011;3355;52.882;8.430;2023-01-23T17:00:13;19.30;;;12.43;;
6638;SDS011;3355;52.882;8.430;2023-01-23T17:02:44;21.73;;;13.50;;
6638;SDS011;3355;52.882;8.430;2023-01-23T17:05:13;16.83;;;12.37;;
6638;SDS011;3355;52.882;8.430;2023-01-23T17:07:40;12.97;;;10.77;;
6638;SDS011;3355;52.882;8.430;2023-01-23T17:10:07;16.50;;;11.17;;
6638;SDS011;3355;52.882;8.430;2023-01-23T17:12:38;13.00;;;10.43;;
6638;SDS011;3355;52.882;8.430;2023-01-23T17:16:36;14.60;;;10.90;;
6638;SDS011;3355;52.882;8.430;2023-01-23T17:18:33;17.00;;;11.60;;
6638;SDS011;3355;52.882;8.430;2023-01-23T17:21:02;16.23;;;11.47;;
6638;SDS011;3355;52.882;8.430;2023-01-23T17:23:33;15.90;;;11.10;;
6638;SDS011;3355;52.882;8.430;2023-01-23T17:26:02;16.60;;;11.77;;
6638;SDS011;3355;52.882;8.430;2023-01-23T17:28:40;16.37;;;11.90;;
6638;SDS011;3355;52.882;8.430;2023-01-23T17:31:28;12.77;;;10.53;;
6638;SDS011;3355;52.882;8.430;2023-01-23T17:33:57;14.90;;;11.83;;
6638;SDS011;3355;52.882;8.430;2023-01-23T17:36:24;16.40;;;12.10;;
6638;SDS011;3355;52.882;8.430;2023-01-23T17:38:51;18.60;;;11.13;;
6638;SDS011;3355;52.882;8.430;2023-01-23T17:41:18;15.53;;;11.03;;
6638;SDS011;3355;52.882;8.430;2023-01-23T17:43:45;20.03;;;13.63;;
6638;SDS011;3355;52.882;8.430;2023-01-23T17:46:18;17.63;;;11.40;;
6638;SDS011;3355;52.882;8.430;2023-01-23T17:48:46;17.80;;;12.93;;
6638;SDS011;3355;52.882;8.430;2023-01-23T17:51:15;20.60;;;12.80;;
6638;SDS011;3355;52.882;8.430;2023-01-23T17:53:42;14.70;;;10.60;;
6638;SDS011;3355;52.882;8.430;2023-01-23T17:56:09;13.77;;;9.80;;
6638;SDS011;3355;52.882;8.430;2023-01-23T17:58:36;16.80;;;11.33;;
6638;SDS011;3355;52.882;8.430;2023-01-23T18:01:04;16.70;;;12.60;;
6638;SDS011;3355;52.882;8.430;2023-01-23T18:03:36;19.90;;;12.63;;
6638;SDS011;3355;52.882;8.430;2023-01-23T18:06:16;15.50;;;10.93;;
6638;SDS011;3355;52.882;8.430;2023-01-23T18:08:45;14.20;;;10.00;;
6638;SDS011;3355;52.882;8.430;2023-01-23T18:11:15;15.73;;;10.97;;
6638;SDS011;3355;52.882;8.430;2023-01-23T18:16:54;15.73;;;10.63;;
6638;SDS011;3355;52.882;8.430;2023-01-23T18:19:22;16.43;;;11.50;;
6638;SDS011;3355;52.882;8.430;2023-01-23T18:21:54;17.17;;;11.07;;
6638;SDS011;3355;52.882;8.430;2023-01-23T18:24:22;15.70;;;11.20;;
6638;SDS011;3355;52.882;8.430;2023-01-23T18:26:54;18.87;;;12.30;;
6638;SDS011;3355;52.882;8.430;2023-01-23T18:29:25;16.80;;;11.60;;
6638;SDS011;3355;52.882;8.430;2023-01-23T18:32:08;15.03;;;10.03;;
6638;SDS011;3355;52.882;8.430;2023-01-23T18:34:45;18.10;;;11.00;;
6638;SDS011;3355;52.882;8.430;2023-01-23T18:37:57;20.77;;;11.77;;
6638;SDS011;3355;52.882;8.430;2023-01-23T18:40:29;15.93;;;11.93;;
6638;SDS011;3355;52.882;8.430;2023-01-23T18:42:59;16.53;;;12.93;;
6638;SDS011;3355;52.882;8.430;2023-01-23T18:45:32;16.50;;;11.73;;
6638;SDS011;3355;52.882;8.430;2023-01-23T18:47:59;19.50;;;10.83;;
6638;SDS011;3355;52.882;8.430;2023-01-23T18:50:28;15.63;;;10.37;;
6638;SDS011;3355;52.882;8.430;2023-01-23T18:53:00;17.53;;;11.83;;
6638;SDS011;3355;52.882;8.430;2023-01-23T18:55:35;19.77;;;12.07;;
6638;SDS011;3355;52.882;8.430;2023-01-23T23:08:03;18.47;;;11.80;;
6638;SDS011;3355;52.882;8.430;2023-01-23T23:10:32;20.27;;;10.63;;
